Time;durP1;ratioP1;P1;durP2;ratioP2;P2;SDS_P1;SDS_P2;PMS_P1;PMS_P2;Temp;Humidity;BMP_temperature;BMP_pressure;BME280_temperature;BME280_humidity;BME280_pressure;Samples;Min_cycle;Max_cycle;Signal;HPM_P1;HPM_P2
2022/02/15 00:01:44;;;;;;;1.05;0.47;;;;;;;;;;5074823;28;20044;-44
2022/02/15 00:04:10;;;;;;;0.80;0.45;;;;;;;;;;5075069;28;20047;-45
2022/02/15 00:06:36;;;;;;;1.20;0.40;;;;;;;;;;5075167;28;20025;-45
2022/02/15 00:09:02;;;;;;;1.88;0.50;;;;;;;;;;5074881;28;20031;-45
2022/02/15 00:11:28;;;;;;;1.35;0.45;;;;;;;;;;5074725;28;20554;-45
2022/02/15 00:13:54;;;;;;;0.95;0.55;;;;;;;;;;5074789;28;20025;-45
2022/02/15 00:16:20;;;;;;;1.02;0.40;;;;;;;;;;5074690;28;20483;-45
2022/02/15 00:18:46;;;;;;;3.05;0.70;;;;;;;;;;5074729;28;20024;-45
2022/02/15 00:21:12;;;;;;;1.05;0.45;;;;;;;;;;5074741;28;20109;-45
2022/02/15 00:23:38;;;;;;;1.77;0.55;;;;;;;;;;5074598;28;20021;-45
2022/02/15 00:26:04;;;;;;;0.95;0.45;;;;;;;;;;5074598;28;20029;-45
2022/02/15 00:28:30;;;;;;;2.72;0.40;;;;;;;;;;5074524;28;20165;-45
2022/02/15 00:30:56;;;;;;;2.55;0.50;;;;;;;;;;5074392;28;20042;-45
2022/02/15 00:33:22;;;;;;;2.53;0.65;;;;;;;;;;5074468;28;20107;-46
2022/02/15 00:35:48;;;;;;;1.85;0.40;;;;;;;;;;5074442;28;20123;-45
2022/02/15 00:38:14;;;;;;;1.48;0.60;;;;;;;;;;5074723;28;20036;-45
2022/02/15 00:40:40;;;;;;;1.88;0.60;;;;;;;;;;5074003;28;20028;-45
2022/02/15 00:43:06;;;;;;;1.25;0.38;;;;;;;;;;5074260;28;20516;-45
2022/02/15 00:45:32;;;;;;;0.50;0.30;;;;;;;;;;5074176;28;20032;-45
2022/02/15 00:47:58;;;;;;;1.58;0.57;;;;;;;;;;5074129;28;20035;-45
2022/02/15 00:50:24;;;;;;;2.15;0.40;;;;;;;;;;5073960;28;20033;-46
2022/02/15 00:52:50;;;;;;;0.80;0.30;;;;;;;;;;5074034;28;20029;-45
2022/02/15 00:55:16;;;;;;;1.10;0.30;;;;;;;;;;5073957;28;20412;-45
2022/02/15 00:57:43;;;;;;;1.42;0.50;;;16.10;85.40;;;;;;5073926;28;20032;-45
2022/02/15 01:00:11;;;;;;;0.40;0.38;;;16.10;83.30;;;;;;5073887;28;20104;-45
2022/02/15 01:02:37;;;;;;;0.63;0.40;;;;;;;;;;5073505;28;20051;-45
2022/02/15 01:05:04;;;;;;;1.40;0.50;;;16.10;82.70;;;;;;5073720;28;20044;-45
2022/02/15 01:07:30;;;;;;;0.88;0.30;;;;;;;;;;5073505;28;20032;-45
2022/02/15 01:09:56;;;;;;;1.85;0.30;;;16.10;82.00;;;;;;5073686;28;20024;-45
2022/02/15 01:12:22;;;;;;;3.20;0.60;;;;;;;;;;5073519;28;20097;-45
2022/02/15 01:14:48;;;;;;;2.33;0.63;;;;;;;;;;5073557;28;20455;-45
2022/02/15 01:17:15;;;;;;;1.98;0.30;;;;;;;;;;5055591;28;20542;-46
2022/02/15 01:19:41;;;;;;;0.98;0.30;;;;;;;;;;5073418;28;20025;-45
2022/02/15 01:22:07;;;;;;;1.25;0.45;;;;;;;;;;5073696;28;20028;-45
2022/02/15 01:24:33;;;;;;;1.13;0.40;;;;;;;;;;5073621;28;20025;-45
2022/02/15 01:26:59;;;;;;;1.20;0.30;;;;;;;;;;5073348;28;20055;-45
2022/02/15 01:29:25;;;;;;;1.77;0.40;;;;;;;;;;5073298;28;20059;-44
2022/02/15 01:31:51;;;;;;;1.80;0.30;;;;;;;;;;5073137;28;20068;-45
2022/02/15 01:34:17;;;;;;;0.90;0.30;;;;;;;;;;5073563;28;20024;-45
2022/02/15 01:36:43;;;;;;;0.98;0.30;;;15.90;80.50;;;;;;5073392;28;20028;-45
2022/02/15 01:39:09;;;;;;;0.98;0.35;;;;;;;;;;5073160;28;20025;-45
2022/02/15 01:41:36;;;;;;;1.27;0.35;;;;;;;;;;5073010;28;20036;-45
2022/02/15 01:44:02;;;;;;;2.10;0.35;;;;;;;;;;5073048;28;20029;-45
2022/02/15 01:46:28;;;;;;;1.00;0.60;;;;;;;;;;5073022;28;20107;-44
2022/02/15 01:48:54;;;;;;;0.60;0.30;;;;;;;;;;5072826;28;20020;-45
2022/02/15 01:51:20;;;;;;;0.80;0.20;;;;;;;;;;5073158;28;20039;-47
2022/02/15 01:53:46;;;;;;;0.70;0.40;;;;;;;;;;5072207;28;20020;-44
2022/02/15 01:56:12;;;;;;;0.82;0.40;;;15.90;84.70;;;;;;5072868;28;20087;-45
2022/02/15 01:58:39;;;;;;;1.17;0.30;;;;;;;;;;5072761;28;20029;-45
2022/02/15 02:01:05;;;;;;;2.05;0.38;;;;;;;;;;5073047;28;20390;-45
2022/02/15 02:03:31;;;;;;;1.33;0.45;;;;;;;;;;5072552;28;20041;-45
2022/02/15 02:05:57;;;;;;;1.10;0.20;;;;;;;;;;5072692;28;20475;-45
2022/02/15 02:08:27;;;;;;;0.85;0.40;;;15.90;79.30;;;;;;5072717;28;20032;-45
2022/02/15 02:10:54;;;;;;;;;;;16.20;85.30;;;;;;5073219;28;20083;-45
2022/02/15 02:13:20;;;;;;;1.90;0.35;;;15.80;82.70;;;;;;5072649;28;19904;-45
2022/02/15 02:15:47;;;;;;;0.75;0.30;;;15.80;82.90;;;;;;5072559;28;20064;-45
2022/02/15 02:18:13;;;;;;;1.25;0.43;;;;;;;;;;5072543;28;20028;-45
2022/02/15 02:20:39;;;;;;;1.50;0.30;;;;;;;;;;5072759;28;20465;-44
2022/02/15 02:23:06;;;;;;;1.10;0.50;;;;;;;;;;5072441;28;20025;-45
2022/02/15 02:25:32;;;;;;;2.35;0.43;;;;;;;;;;5072394;28;20055;-45
2022/02/15 02:27:59;;;;;;;1.23;0.47;;;15.80;84.10;;;;;;5072358;28;20106;-45
2022/02/15 02:30:25;;;;;;;0.40;0.20;;;;;;;;;;5072547;28;20020;-44
2022/02/15 02:32:51;;;;;;;2.05;0.70;;;;;;;;;;5072303;28;20544;-45
2022/02/15 02:35:19;;;;;;;1.38;0.50;;;15.80;91.20;;;;;;5072366;28;20042;-45
2022/02/15 02:37:45;;;;;;;0.70;0.30;;;;;;;;;;5072270;28;20060;-45
2022/02/15 02:40:11;;;;;;;0.85;0.40;;;15.50;78.10;;;;;;5072548;28;20103;-45
2022/02/15 02:42:38;;;;;;;0.93;0.20;;;;;;;;;;5072484;28;20052;-44
2022/02/15 02:45:18;;;;;;;1.33;0.30;;;15.70;78.60;;;;;;5072187;28;20107;-44
2022/02/15 02:47:48;;;;;;;0.85;0.30;;;15.70;78.50;;;;;;5072397;28;20098;-45
2022/02/15 02:50:14;;;;;;;1.27;0.50;;;15.60;75.70;;;;;;5072130;28;20090;-45
2022/02/15 02:52:41;;;;;;;2.03;0.32;;;15.70;78.50;;;;;;5072142;28;20039;-45
2022/02/15 02:55:07;;;;;;;2.70;0.30;;;15.70;75.90;;;;;;5072149;28;20029;-45
2022/02/15 02:57:35;;;;;;;2.20;0.38;;;;;;;;;;5072037;28;20033;-45
2022/02/15 03:00:01;;;;;;;0.88;0.32;;;;;;;;;;5072082;28;20027;-45
2022/02/15 03:02:27;;;;;;;1.10;0.30;;;;;;;;;;5071779;28;20076;-45
2022/02/15 03:04:53;;;;;;;1.80;0.30;;;;;;;;;;5075193;28;20067;-45
2022/02/15 03:07:19;;;;;;;1.42;0.55;;;;;;;;;;5076159;28;20020;-45
2022/02/15 03:09:45;;;;;;;0.80;0.38;;;;;;;;;;5075983;28;20024;-45
2022/02/15 03:12:12;;;;;;;0.73;0.32;;;;;;;;;;5075846;28;20177;-45
2022/02/15 03:14:38;;;;;;;0.55;0.30;;;;;;;;;;5075935;28;20024;-45
2022/02/15 03:17:05;;;;;;;0.70;0.30;;;;;;;;;;5075832;28;20059;-45
2022/02/15 03:19:31;;;;;;;0.88;0.30;;;;;;;;;;5075827;28;20498;-45
2022/02/15 03:21:58;;;;;;;0.60;0.60;;;;;;;;;;5075745;28;20028;-44
2022/02/15 03:24:24;;;;;;;0.75;0.20;;;;;;;;;;5076041;28;20086;-45
2022/02/15 03:26:50;;;;;;;1.48;0.50;;;;;;;;;;5075799;28;20036;-45
2022/02/15 03:29:16;;;;;;;1.23;0.50;;;;;;;;;;5075624;28;20025;-45
2022/02/15 03:31:42;;;;;;;1.38;0.43;;;;;;;;;;5075521;28;20036;-44
2022/02/15 03:34:08;;;;;;;0.45;0.30;;;;;;;;;;5075479;28;20028;-45
2022/02/15 03:36:34;;;;;;;1.02;0.60;;;;;;;;;;5075517;28;20084;-45
2022/02/15 03:39:00;;;;;;;0.95;0.40;;;;;;;;;;5075435;28;20020;-45
2022/02/15 03:44:10;;;;;;;1.55;0.40;;;;;;;;;;5075457;28;20071;-45
2022/02/15 03:46:36;;;;;;;1.20;0.47;;;;;;;;;;5075297;28;20060;-45
2022/02/15 03:49:02;;;;;;;1.83;0.85;;;;;;;;;;5075260;28;20081;-45
2022/02/15 03:51:28;;;;;;;3.60;0.43;;;;;;;;;;5075146;28;20040;-45
2022/02/15 03:53:54;;;;;;;0.65;0.40;;;;;;;;;;5075153;28;20029;-45
2022/02/15 03:56:20;;;;;;;1.58;0.60;;;;;;;;;;5075092;28;20104;-45
2022/02/15 03:58:46;;;;;;;1.58;0.40;;;;;;;;;;5075477;28;20437;-45
2022/02/15 04:01:12;;;;;;;0.60;0.60;;;;;;;;;;5075088;28;20028;-45
2022/02/15 04:03:38;;;;;;;1.45;0.38;;;;;;;;;;5074854;28;20044;-45
2022/02/15 04:06:04;;;;;;;1.63;0.52;;;;;;;;;;5075244;28;20028;-45
2022/02/15 04:08:31;;;;;;;0.60;0.45;;;;;;;;;;5074911;28;20364;-45
2022/02/15 04:10:56;;;;;;;1.33;0.60;;;;;;;;;;5075106;28;20024;-45
2022/02/15 04:13:22;;;;;;;0.90;0.55;;;;;;;;;;5074870;28;20496;-45
2022/02/15 04:15:48;;;;;;;1.70;0.32;;;;;;;;;;5074137;28;20033;-46
2022/02/15 04:18:14;;;;;;;0.82;0.50;;;;;;;;;;5074760;28;20032;-45
2022/02/15 04:20:40;;;;;;;1.00;0.45;;;;;;;;;;5074863;28;20107;-45
2022/02/15 04:23:06;;;;;;;2.13;0.52;;;;;;;;;;5074647;28;20027;-45
2022/02/15 04:25:32;;;;;;;0.82;0.32;;;;;;;;;;5074647;28;20032;-45
2022/02/15 04:27:58;;;;;;;1.85;0.45;;;;;;;;;;5074572;28;20028;-45
2022/02/15 04:30:24;;;;;;;2.33;0.50;;;;;;;;;;5074407;28;20029;-44
2022/02/15 04:32:50;;;;;;;1.35;0.50;;;;;;;;;;5074454;28;20032;-45
2022/02/15 04:35:16;;;;;;;2.28;0.55;;;;;;;;;;5074383;28;20408;-45
2022/02/15 04:37:42;;;;;;;0.40;0.40;;;;;;;;;;5074445;28;20032;-45
2022/02/15 04:40:09;;;;;;;1.08;0.38;;;;;;;;;;5074376;28;20056;-45
2022/02/15 04:42:35;;;;;;;1.42;0.50;;;;;;;;;;5074261;28;20146;-45
2022/02/15 04:45:01;;;;;;;1.25;0.40;;;;;;;;;;5074297;28;20024;-45
2022/02/15 04:47:27;;;;;;;1.15;0.50;;;;;;;;;;5074389;28;20028;-45
2022/02/15 04:49:53;;;;;;;1.20;0.40;;;;;;;;;;5074203;28;20119;-45
2022/02/15 04:52:19;;;;;;;2.53;0.60;;;;;;;;;;5074035;28;20040;-45
2022/02/15 04:54:45;;;;;;;1.88;0.50;;;;;;;;;;5074030;28;20082;-45
2022/02/15 04:57:11;;;;;;;1.48;0.57;;;;;;;;;;5074063;28;20035;-45
2022/02/15 04:59:36;;;;;;;0.70;0.40;;;;;;;;;;5073913;28;20086;-45
2022/02/15 05:02:02;;;;;;;1.70;0.60;;;;;;;;;;5073648;28;20094;-45
2022/02/15 05:07:13;;;;;;;1.70;0.47;;;;;;;;;;5074096;28;20046;-45
2022/02/15 05:09:39;;;;;;;1.45;0.63;;;;;;;;;;5073694;28;20394;-45
2022/02/15 05:12:05;;;;;;;2.40;0.63;;;;;;;;;;5073639;28;20049;-45
2022/02/15 05:14:31;;;;;;;1.98;0.40;;;;;;;;;;5073540;28;20020;-45
2022/02/15 05:16:57;;;;;;;1.00;0.50;;;;;;;;;;5073656;28;20043;-45
2022/02/15 05:19:23;;;;;;;1.80;0.50;;;;;;;;;;5073537;28;20054;-45
2022/02/15 05:21:49;;;;;;;1.23;0.40;;;;;;;;;;5073455;28;20077;-46
2022/02/15 05:24:15;;;;;;;2.80;0.40;;;;;;;;;;5073538;28;20024;-45
2022/02/15 05:26:41;;;;;;;1.30;0.60;;;;;;;;;;5072805;28;20020;-46
2022/02/15 05:29:07;;;;;;;1.23;0.50;;;;;;;;;;5073062;28;20608;-45
2022/02/15 05:31:33;;;;;;;3.42;0.57;;;;;;;;;;5073245;28;20044;-45
2022/02/15 05:33:59;;;;;;;2.35;0.55;;;;;;;;;;5073402;28;20032;-45
2022/02/15 05:36:25;;;;;;;1.73;0.45;;;;;;;;;;5073206;28;20024;-45
2022/02/15 05:38:51;;;;;;;1.67;0.63;;;;;;;;;;5073191;28;20112;-44
2022/02/15 05:41:17;;;;;;;2.38;0.50;;;;;;;;;;5073070;28;20056;-45
2022/02/15 05:43:43;;;;;;;3.38;0.55;;;;;;;;;;5073294;28;20024;-45
2022/02/15 05:46:09;;;;;;;1.58;0.55;;;;;;;;;;5073054;28;20578;-45
2022/02/15 05:48:35;;;;;;;1.55;0.50;;;;;;;;;;5072972;28;20052;-45
2022/02/15 05:51:01;;;;;;;2.22;0.50;;;;;;;;;;5073246;28;20083;-45
2022/02/15 05:53:28;;;;;;;2.40;0.40;;;;;;;;;;5072980;28;20491;-45
2022/02/15 05:55:56;;;;;;;2.65;0.80;;;15.30;92.80;;;;;;5073063;28;20025;-45
2022/02/15 05:58:22;;;;;;;1.10;0.50;;;;;;;;;;5073118;28;20099;-45
2022/02/15 06:00:49;;;;;;;2.28;0.65;;;;;;;;;;5072769;28;20028;-45
2022/02/15 06:06:00;;;;;;;1.88;0.50;;;;;;;;;;5072994;28;20042;-45
2022/02/15 06:08:26;;;;;;;1.63;0.60;;;;;;;;;;5072737;28;20037;-45
2022/02/15 06:10:52;;;;;;;1.98;0.65;;;;;;;;;;5072601;28;20057;-47
2022/02/15 06:13:18;;;;;;;3.03;0.60;;;;;;;;;;5072646;28;20037;-47
2022/02/15 06:15:45;;;;;;;2.00;0.57;;;15.10;71.80;;;;;;5072545;28;20063;-47
2022/02/15 06:18:11;;;;;;;1.20;0.65;;;;;;;;;;5072571;28;20127;-48
2022/02/15 06:20:37;;;;;;;2.88;0.70;;;;;;;;;;5072522;28;20200;-47
2022/02/15 06:23:03;;;;;;;1.65;0.50;;;;;;;;;;5072449;28;20038;-48
2022/02/15 06:25:29;;;;;;;2.28;0.47;;;;;;;;;;5072454;28;20031;-47
2022/02/15 06:27:55;;;;;;;2.67;0.68;;;;;;;;;;5072441;28;20111;-48
2022/02/15 06:30:21;;;;;;;2.15;0.60;;;;;;;;;;5072413;28;20103;-47
2022/02/15 06:32:47;;;;;;;3.88;1.00;;;;;;;;;;5072305;28;20043;-47
2022/02/15 06:35:14;;;;;;;1.92;0.85;;;;;;;;;;5072311;28;20029;-47
2022/02/15 06:37:44;;;;;;;2.95;0.50;;;16.10;67.90;;;;;;5072303;28;20028;-48
2022/02/15 06:40:12;;;;;;;3.78;0.80;;;16.30;70.60;;;;;;5072281;28;20432;-48
2022/02/15 06:42:38;;;;;;;3.15;0.80;;;;;;;;;;5071863;28;20098;-47
2022/02/15 06:45:04;;;;;;;3.10;1.38;;;;;;;;;;5072187;28;20017;-47
2022/02/15 06:47:30;;;;;;;5.95;0.60;;;;;;;;;;5072332;28;20032;-45
2022/02/15 06:49:56;;;;;;;3.97;1.00;;;;;;;;;;5072164;28;20028;-45
2022/02/15 06:52:23;;;;;;;2.95;0.70;;;;;;;;;;5072049;28;20079;-45
2022/02/15 06:54:49;;;;;;;2.55;0.75;;;;;;;;;;5072153;28;20036;-45
2022/02/15 06:57:15;;;;;;;3.97;0.85;;;;;;;;;;5054161;28;20115;-46
2022/02/15 06:59:42;;;;;;;3.35;0.65;;;;;;;;;;5072155;28;20104;-45
2022/02/15 07:02:08;;;;;;;4.30;0.73;;;;;;;;;;5071994;28;20106;-45
2022/02/15 07:04:34;;;;;;;2.75;0.60;;;;;;;;;;5072146;28;20417;-45
2022/02/15 07:07:00;;;;;;;3.42;1.00;;;;;;;;;;5072093;28;20052;-45
2022/02/15 07:09:26;;;;;;;4.13;0.90;;;;;;;;;;5072005;28;20028;-46
2022/02/15 07:11:52;;;;;;;3.33;0.70;;;;;;;;;;5071851;28;20040;-46
2022/02/15 07:14:18;;;;;;;2.47;0.90;;;;;;;;;;5071941;28;20099;-46
2022/02/15 07:16:44;;;;;;;1.58;0.60;;;;;;;;;;5071952;28;20035;-46
2022/02/15 07:19:10;;;;;;;1.55;0.70;;;;;;;;;;5072127;28;20050;-45
2022/02/15 07:21:36;;;;;;;1.45;0.68;;;;;;;;;;5071960;28;20036;-46
2022/02/15 07:24:02;;;;;;;5.32;1.00;;;;;;;;;;5071874;28;20021;-46
2022/02/15 07:26:28;;;;;;;5.18;0.90;;;;;;;;;;5071934;28;20052;-46
2022/02/15 07:28:55;;;;;;;3.10;0.60;;;;;;;;;;5071835;28;20078;-46
2022/02/15 07:31:21;;;;;;;2.63;0.50;;;;;;;;;;5071794;28;20039;-45
2022/02/15 07:33:47;;;;;;;4.72;0.47;;;;;;;;;;5071814;28;20107;-46
2022/02/15 07:36:13;;;;;;;2.00;0.70;;;;;;;;;;5071783;28;20104;-46
2022/02/15 07:38:39;;;;;;;1.73;0.50;;;;;;;;;;5071764;28;20382;-46
2022/02/15 07:41:05;;;;;;;0.60;0.40;;;;;;;;;;5071694;28;20433;-46
2022/02/15 07:43:31;;;;;;;1.52;0.50;;;;;;;;;;5071778;28;20043;-46
2022/02/15 07:45:57;;;;;;;1.48;0.60;;;;;;;;;;5071612;28;20167;-45
2022/02/15 07:48:23;;;;;;;2.80;1.02;;;;;;;;;;5071656;28;20037;-46
2022/02/15 07:50:49;;;;;;;3.95;0.80;;;;;;;;;;5072811;28;20032;-45
2022/02/15 07:53:15;;;;;;;2.25;0.50;;;;;;;;;;5075183;28;20036;-47
2022/02/15 07:55:41;;;;;;;3.03;1.02;;;;;;;;;;5075124;28;20081;-47
2022/02/15 07:58:07;;;;;;;1.70;0.45;;;;;;;;;;5075098;28;20498;-46
2022/02/15 08:00:33;;;;;;;2.42;0.50;;;;;;;;;;5075187;28;20028;-45
2022/02/15 08:02:59;;;;;;;2.88;1.05;;;;;;;;;;5074834;28;20048;-46
2022/02/15 08:05:26;;;;;;;5.22;1.10;;;19.30;75.60;;;;;;5074908;28;20111;-46
2022/02/15 08:07:54;;;;;;;2.00;0.60;;;19.30;75.90;;;;;;5075218;28;20100;-45
2022/02/15 08:10:21;;;;;;;2.30;0.80;;;19.40;75.90;;;;;;5074897;28;20020;-46
2022/02/15 08:12:48;;;;;;;2.38;0.68;;;;;;;;;;5074758;28;20499;-46
2022/02/15 08:15:17;;;;;;;2.67;0.75;;;19.60;70.80;;;;;;5074756;28;20514;-45
2022/02/15 08:17:43;;;;;;;3.58;0.80;;;;;;;;;;5074748;28;20024;-46
2022/02/15 08:20:09;;;;;;;2.40;0.50;;;;;;;;;;5074732;28;20058;-45
2022/02/15 08:22:35;;;;;;;2.72;0.75;;;;;;;;;;5074643;28;20541;-46
2022/02/15 08:25:01;;;;;;;2.47;0.80;;;;;;;;;;5074726;28;20068;-46
2022/02/15 08:27:27;;;;;;;1.63;0.60;;;;;;;;;;5074581;28;20021;-46
2022/02/15 08:29:53;;;;;;;2.88;0.80;;;;;;;;;;5074882;28;20040;-46
2022/02/15 08:32:19;;;;;;;1.83;0.60;;;;;;;;;;5074626;28;20364;-45
2022/02/15 08:34:45;;;;;;;2.05;0.40;;;;;;;;;;5074449;28;20032;-46
2022/02/15 08:37:11;;;;;;;2.67;0.60;;;;;;;;;;5074488;28;20107;-45
2022/02/15 08:39:37;;;;;;;2.88;0.60;;;;;;;;;;5074301;28;20112;-46
2022/02/15 08:42:04;;;;;;;1.70;0.40;;;;;;;;;;5074406;28;20052;-45
2022/02/15 08:44:34;;;;;;;1.75;0.60;;;19.90;73.00;;;;;;5074381;28;20032;-50
2022/02/15 08:47:00;;;;;;;1.15;0.52;;;;;;;;;;5074501;28;20070;-45
2022/02/15 08:49:27;;;;;;;3.38;0.63;;;;;;;;;;5074109;28;20078;-46
2022/02/15 08:51:53;;;;;;;1.95;0.70;;;;;;;;;;5074047;28;20044;-47
2022/02/15 08:54:19;;;;;;;2.40;0.75;;;;;;;;;;5073994;28;20029;-45
2022/02/15 08:56:45;;;;;;;3.20;0.60;;;;;;;;;;5074144;28;20070;-46
2022/02/15 08:59:11;;;;;;;1.58;0.63;;;;;;;;;;5074270;28;20024;-46
2022/02/15 09:01:37;;;;;;;2.25;0.50;;;;;;;;;;5073711;28;20029;-46
2022/02/15 09:04:03;;;;;;;1.83;0.60;;;;;;;;;;5053942;28;20053;-46
2022/02/15 09:06:29;;;;;;;2.85;0.90;;;;;;;;;;5053673;28;20029;-45
2022/02/15 09:08:55;;;;;;;3.42;0.95;;;;;;;;;;5053544;28;20029;-46
2022/02/15 09:11:21;;;;;;;2.25;0.60;;;;;;;;;;5053498;28;20059;-47
2022/02/15 09:13:47;;;;;;;1.27;0.30;;;;;;;;;;5053614;28;20032;-46
2022/02/15 09:16:13;;;;;;;3.83;0.90;;;;;;;;;;5053769;28;20025;-46
2022/02/15 09:18:39;;;;;;;2.17;0.68;;;;;;;;;;5053646;28;20102;-46
2022/02/15 09:21:05;;;;;;;2.45;0.68;;;;;;;;;;5053566;28;20195;-46
2022/02/15 09:23:31;;;;;;;1.48;0.57;;;;;;;;;;5053211;28;20067;-46
2022/02/15 09:25:59;;;;;;;1.02;0.70;;;;;;;;;;5053245;28;20029;-46
2022/02/15 09:28:25;;;;;;;2.00;0.60;;;;;;;;;;5053348;28;20033;-46
2022/02/15 09:30:54;;;;;;;2.35;0.60;;;;;;;;;;5053177;28;20036;-46
2022/02/15 09:33:25;;;;;;;2.33;0.75;;;21.30;71.60;;;;;;5053094;28;20040;-46
2022/02/15 09:35:51;;;;;;;2.08;0.90;;;;;;;;;;5053114;28;20021;-46
2022/02/15 09:38:17;;;;;;;2.53;0.90;;;;;;;;;;5052976;28;20033;-47
2022/02/15 09:40:44;;;;;;;1.73;0.68;;;;;;;;;;5052876;28;20043;-47
2022/02/15 09:43:11;;;;;;;2.72;0.68;;;21.30;71.80;;;;;;5052865;28;20025;-46
2022/02/15 09:45:37;;;;;;;1.85;0.95;;;21.40;71.90;;;;;;5052718;28;20066;-46
2022/02/15 09:48:03;;;;;;;0.65;0.60;;;;;;;;;;5052761;28;20116;-47
2022/02/15 09:50:32;;;;;;;2.70;0.65;;;21.40;70.20;;;;;;5052949;28;20481;-46
2022/02/15 09:52:59;;;;;;;2.47;0.70;;;21.40;70.30;;;;;;5052722;28;20121;-46
2022/02/15 09:55:25;;;;;;;2.10;0.60;;;;;;;;;;5052624;28;20537;-46
2022/02/15 09:57:51;;;;;;;2.25;1.00;;;;;;;;;;5052562;28;20530;-46
2022/02/15 10:00:21;;;;;;;1.92;0.70;;;;;;;;;;5052479;28;20049;-46
2022/02/15 10:02:50;;;;;;;2.47;0.75;;;21.20;70.90;;;;;;5062024;28;20463;-46
2022/02/15 10:05:18;;;;;;;2.92;0.98;;;21.10;71.20;;;;;;5072908;28;20044;-47
2022/02/15 10:07:56;;;;;;;1.95;0.68;;;21.00;71.40;;;;;;5072607;28;20074;-46
2022/02/15 10:10:32;;;;;;;2.47;0.73;;;21.00;65.90;;;;;;5072924;28;20024;-48
2022/02/15 10:13:09;;;;;;;3.08;0.70;;;20.90;71.70;;;;;;5071901;28;20483;-47
2022/02/15 10:15:42;;;;;;;2.17;0.70;;;20.90;66.20;;;;;;5072313;28;20052;-47
2022/02/15 10:18:11;;;;;;;3.15;0.77;;;20.80;72.10;;;;;;5072335;28;20020;-46
2022/02/15 10:20:40;;;;;;;2.25;0.73;;;20.90;72.20;;;;;;5072357;28;20422;-47
2022/02/15 10:23:31;;;;;;;1.63;0.45;;;20.80;66.70;;;;;;5072171;28;20032;-47
2022/02/15 10:25:57;;;;;;;3.35;0.50;;;20.90;70.40;;;;;;5072301;28;20027;-48
2022/02/15 10:28:25;;;;;;;1.40;0.50;;;20.90;72.30;;;;;;5072151;28;20046;-48
2022/02/15 10:30:56;;;;;;;2.65;0.80;;;20.90;66.50;;;;;;5071965;28;20041;-46
2022/02/15 10:33:31;;;;;;;1.85;0.80;;;20.90;72.10;;;;;;5072035;28;20157;-46
2022/02/15 10:36:05;;;;;;;1.65;0.50;;;21.00;72.10;;;;;;5072023;28;20048;-45
2022/02/15 10:38:40;;;;;;;2.85;0.70;;;21.00;71.80;;;;;;5072060;28;20479;-46
2022/02/15 10:41:12;;;;;;;2.28;0.68;;;21.00;71.40;;;;;;5072164;28;20074;-46
2022/02/15 10:43:55;;;;;;;4.50;0.70;;;21.00;66.00;;;;;;5072306;28;20029;-45
2022/02/15 10:46:23;;;;;;;6.43;1.10;;;21.00;71.10;;;;;;5054270;28;20028;-45
2022/02/15 10:48:49;;;;;;;2.40;0.60;;;;;;;;;;5072164;28;20104;-46
2022/02/15 10:51:16;;;;;;;4.53;0.60;;;21.00;68.80;;;;;;5072080;28;20040;-46
2022/02/15 10:53:42;;;;;;;5.00;0.82;;;;;;;;;;5072159;28;20032;-46
2022/02/15 10:56:08;;;;;;;2.80;0.65;;;;;;;;;;5072153;28;20050;-46
2022/02/15 10:58:34;;;;;;;4.32;0.80;;;;;;;;;;5072144;28;20021;-46
2022/02/15 11:01:09;;;;;;;2.97;0.55;;;21.00;71.80;;;;;;5072047;28;20063;-46
2022/02/15 11:03:36;;;;;;;2.10;0.75;;;21.00;71.90;;;;;;5071982;28;20056;-46
2022/02/15 11:06:02;;;;;;;4.22;0.95;;;;;;;;;;5072016;28;20021;-46
2022/02/15 11:08:30;;;;;;;2.97;0.85;;;21.00;70.60;;;;;;5071838;28;20040;-46
2022/02/15 11:11:10;;;;;;;2.70;0.80;;;20.90;66.50;;;;;;5071663;28;20046;-45
2022/02/15 11:13:37;;;;;;;2.88;0.73;;;21.00;72.00;;;;;;5071751;28;20035;-46
2022/02/15 11:16:22;;;;;;;4.60;0.80;;;21.00;66.50;;;;;;5071580;28;20016;-46
2022/02/15 11:18:48;;;;;;;1.75;0.60;;;;;;;;;;5071836;28;20073;-46
2022/02/15 11:21:27;;;;;;;2.17;0.85;;;21.00;66.60;;;;;;5071956;28;20025;-46
2022/02/15 11:23:55;;;;;;;2.40;0.75;;;21.00;72.10;;;;;;5072271;28;20025;-45
2022/02/15 11:26:23;;;;;;;1.52;0.60;;;;;;;;;;5074056;28;20103;-45
2022/02/15 11:28:56;;;;;;;1.77;0.65;;;20.90;72.30;;;;;;5076014;28;20032;-46
2022/02/15 11:31:30;;;;;;;2.60;0.90;;;20.80;66.60;;;;;;5075587;28;20032;-46
2022/02/15 11:34:00;;;;;;;1.80;0.57;;;20.90;72.60;;;;;;5075871;28;20013;-46
2022/02/15 11:36:26;;;;;;;2.80;0.77;;;;;;;;;;5075518;28;20040;-46
2022/02/15 11:38:57;;;;;;;3.72;0.90;;;20.90;66.60;;;;;;5075404;28;20028;-46
2022/02/15 11:41:25;;;;;;;6.10;0.60;;;20.90;72.20;;;;;;5075283;28;20036;-45
2022/02/15 11:43:55;;;;;;;3.88;0.63;;;20.90;66.60;;;;;;5075173;28;20009;-45
2022/02/15 11:46:35;;;;;;;3.30;0.60;;;20.90;66.60;;;;;;5075021;28;20485;-46
2022/02/15 11:49:12;;;;;;;1.45;0.65;;;20.90;66.40;;;;;;5074946;28;20028;-45
2022/02/15 11:51:39;;;;;;;2.80;0.60;;;;;;;;;;5074944;28;20130;-45
2022/02/15 11:54:13;;;;;;;1.35;0.50;;;20.80;72.30;;;;;;5075100;28;20391;-45
2022/02/15 11:56:43;;;;;;;2.05;0.68;;;20.90;70.30;;;;;;5074885;28;20031;-46
2022/02/15 11:59:16;;;;;;;;;;;21.60;73.60;;;;;;5075264;28;20029;-46
2022/02/15 12:01:43;;;;;;;1.75;0.50;;;20.90;69.70;;;;;;5075048;28;19995;-45
2022/02/15 12:04:11;;;;;;;1.60;0.50;;;20.90;72.00;;;;;;5075000;28;20066;-46
2022/02/15 12:06:41;;;;;;;2.95;0.47;;;21.00;71.80;;;;;;5074629;28;20475;-46
2022/02/15 12:09:08;;;;;;;1.13;0.50;;;;;;;;;;5074609;28;20081;-45
2022/02/15 12:11:36;;;;;;;3.70;0.75;;;21.00;71.50;;;;;;5074769;28;20491;-45
2022/02/15 12:14:13;;;;;;;2.33;0.82;;;21.00;66.10;;;;;;5074429;28;20103;-46
2022/02/15 12:16:49;;;;;;;4.80;0.88;;;21.10;71.70;;;;;;5074597;28;20036;-45
2022/02/15 12:19:35;;;;;;;2.25;0.63;;;21.40;65.90;;;;;;5074721;28;20029;-46
2022/02/15 12:22:01;;;;;;;4.47;1.02;;;;;;;;;;5074840;28;20028;-45
2022/02/15 12:24:28;;;;;;;2.85;0.80;;;21.10;71.60;;;;;;5074669;28;20029;-46
2022/02/15 12:26:59;;;;;;;1.48;0.52;;;21.10;71.40;;;;;;5074566;28;20486;-45
2022/02/15 12:29:24;;;;;;;;;;;21.50;72.50;;;;;;5074996;28;20027;-46
2022/02/15 12:31:58;;;;;;;2.40;0.63;;;21.10;65.70;;;;;;5074470;28;20010;-46
2022/02/15 12:34:24;;;;;;;1.40;0.50;;;;;;;;;;5074562;28;20067;-45
2022/02/15 12:36:50;;;;;;;1.00;0.70;;;;;;;;;;5073774;28;20055;-45
2022/02/15 12:39:18;;;;;;;1.67;0.68;;;;;;;;;;5074353;28;20386;-45
2022/02/15 12:41:44;;;;;;;2.17;0.65;;;;;;;;;;5074025;28;20115;-46
2022/02/15 12:44:10;;;;;;;3.92;0.80;;;;;;;;;;5074166;28;20074;-45
2022/02/15 12:46:37;;;;;;;1.15;0.60;;;21.10;70.20;;;;;;5074231;28;20078;-45
2022/02/15 12:49:03;;;;;;;0.80;0.43;;;21.10;71.30;;;;;;5074099;28;20032;-45
2022/02/15 12:51:33;;;;;;;1.75;0.63;;;21.10;71.60;;;;;;5073889;28;20036;-46
2022/02/15 12:53:59;;;;;;;2.60;0.38;;;;;;;;;;5073978;28;20502;-45
2022/02/15 12:56:27;;;;;;;3.25;0.60;;;21.00;71.70;;;;;;5074116;28;20056;-45
2022/02/15 12:58:56;;;;;;;1.80;0.55;;;21.00;71.70;;;;;;5074067;28;20025;-47
2022/02/15 13:01:22;;;;;;;1.27;0.50;;;;;;;;;;5073871;28;20028;-45
2022/02/15 13:03:51;;;;;;;2.80;0.85;;;20.90;72.00;;;;;;5073735;28;20524;-46
2022/02/15 13:06:18;;;;;;;2.47;0.68;;;20.90;68.90;;;;;;5073816;28;20587;-45
2022/02/15 13:08:50;;;;;;;3.67;0.75;;;20.80;66.60;;;;;;5073832;28;20421;-45
2022/02/15 13:11:16;;;;;;;1.10;0.40;;;;;;;;;;5073695;28;20041;-46
2022/02/15 13:13:42;;;;;;;4.22;0.98;;;;;;;;;;5073820;28;20494;-45
2022/02/15 13:16:09;;;;;;;4.03;0.70;;;20.70;71.00;;;;;;5073921;28;20044;-46
2022/02/15 13:18:42;;;;;;;1.75;0.60;;;20.70;66.60;;;;;;5073801;28;20021;-45
2022/02/15 13:21:34;;;;;;;1.83;0.77;;;20.70;67.10;;;;;;5073377;28;20419;-45
2022/02/15 13:24:01;;;;;;;1.70;0.60;;;;;;;;;;5073399;28;20032;-45
2022/02/15 13:26:29;;;;;;;1.75;0.65;;;20.80;67.10;;;;;;5073170;28;20036;-46
2022/02/15 13:28:55;;;;;;;1.83;0.75;;;;;;;;;;5073270;28;20021;-46
2022/02/15 13:31:21;;;;;;;1.98;0.80;;;;;;;;;;5073031;28;20039;-46
2022/02/15 13:33:48;;;;;;;3.80;0.65;;;;;;;;;;5073076;28;20060;-46
2022/02/15 13:36:14;;;;;;;3.33;0.70;;;;;;;;;;5073212;28;20041;-45
2022/02/15 13:38:40;;;;;;;1.98;0.70;;;;;;;;;;5073167;28;20359;-45
2022/02/15 13:41:06;;;;;;;2.40;0.70;;;;;;;;;;5073110;28;20036;-45
2022/02/15 13:43:33;;;;;;;1.98;0.60;;;;;;;;;;5073319;28;20079;-46
2022/02/15 13:46:00;;;;;;;2.95;0.60;;;;;;;;;;5073168;28;20060;-46
2022/02/15 13:48:26;;;;;;;1.60;0.93;;;;;;;;;;5072455;28;20505;-46
2022/02/15 13:50:58;;;;;;;2.60;0.57;;;20.90;69.30;;;;;;5073027;28;20055;-46
2022/02/15 13:53:25;;;;;;;2.78;1.02;;;;;;;;;;5073016;28;20491;-46
2022/02/15 13:55:51;;;;;;;2.13;0.90;;;20.90;69.90;;;;;;5073134;28;20099;-46
2022/02/15 13:58:17;;;;;;;2.28;0.98;;;;;;;;;;5072858;28;20108;-46
2022/02/15 14:00:43;;;;;;;1.52;0.57;;;;;;;;;;5072947;28;20028;-46
2022/02/15 14:03:09;;;;;;;2.42;0.68;;;;;;;;;;5072554;28;20059;-45
2022/02/15 14:05:35;;;;;;;1.30;0.70;;;;;;;;;;5072634;28;20029;-46
2022/02/15 14:08:04;;;;;;;4.85;0.80;;;;;;;;;;5072805;28;20107;-46
2022/02/15 14:10:30;;;;;;;1.83;0.57;;;;;;;;;;5072733;28;20025;-46
2022/02/15 14:12:56;;;;;;;3.45;1.10;;;;;;;;;;5072522;28;20021;-46
2022/02/15 14:15:28;;;;;;;2.65;0.75;;;;;;;;;;5072641;28;20025;-46
2022/02/15 14:17:57;;;;;;;1.58;0.73;;;;;;;;;;5072546;28;20058;-46